Time;durP1;ratioP1;P1;durP2;ratioP2;P2;SDS_P1;SDS_P2;PMS_P1;PMS_P2;Temp;Humidity;BMP_temperature;BMP_pressure;BME280_temperature;BME280_humidity;BME280_pressure;Samples;Min_cycle;Max_cycle;Signal;HPM_P1;HPM_P2
2022/04/07 00:00:50;;;;;;;0.40;0.40;;;;;;;2.12;95.90;97285.13;5063450;28;20021;-68
2022/04/07 00:03:16;;;;;;;0.40;0.40;;;;;;;2.13;96.05;97281.69;5063614;28;20024;-69
2022/04/07 00:05:41;;;;;;;0.40;0.40;;;;;;;2.12;96.17;97281.72;5063638;28;20027;-67
2022/04/07 00:08:07;;;;;;;0.40;0.40;;;;;;;2.11;96.19;97275.75;5063604;28;20020;-67
2022/04/07 00:10:33;;;;;;;0.40;0.40;;;;;;;2.03;96.19;97268.28;5063331;28;20020;-67
2022/04/07 00:12:59;;;;;;;0.40;0.40;;;;;;;2.05;96.28;97268.22;5063581;28;20033;-68
2022/04/07 00:15:24;;;;;;;0.40;0.40;;;;;;;2.06;96.19;97273.31;5063429;28;20035;-67
2022/04/07 00:17:49;;;;;;;0.40;0.40;;;;;;;2.06;96.34;97269.94;5063328;28;20115;-68
2022/04/07 00:20:16;;;;;;;0.40;0.40;;;;;;;2.09;96.40;97257.06;5063612;28;20132;-68
2022/04/07 00:22:42;;;;;;;0.40;0.40;;;;;;;2.12;96.55;97261.25;5063267;28;20020;-68
2022/04/07 00:25:07;;;;;;;0.40;0.40;;;;;;;2.10;96.25;97253.63;5063122;28;20377;-68
2022/04/07 00:27:32;;;;;;;0.40;0.40;;;;;;;2.03;96.21;97252.09;5045469;28;20020;-68
2022/04/07 00:29:59;;;;;;;0.40;0.40;;;;;;;2.02;96.47;97255.50;5063397;28;20079;-69
2022/04/07 00:32:24;;;;;;;0.40;0.40;;;;;;;2.02;96.47;97255.50;5045017;28;20120;-67
2022/04/07 00:34:54;;;;;;;0.40;0.40;;;;;;;2.01;96.52;97258.97;5063161;28;20041;-67
2022/04/07 00:37:22;;;;;;;0.40;0.40;;;;;;;2.03;96.65;97245.25;5063250;28;20017;-67
2022/04/07 00:39:49;;;;;;;0.40;0.40;;;;;;;2.06;96.50;97240.03;5063462;28;20037;-68
2022/04/07 00:42:14;;;;;;;0.40;0.40;;;;;;;2.12;96.53;97241.63;5062969;28;20049;-68
2022/04/07 00:44:40;;;;;;;0.40;0.40;;;;;;;2.17;96.63;97237.22;5063310;28;20021;-68
2022/04/07 00:47:06;;;;;;;0.40;0.40;;;;;;;2.22;96.69;97232.00;5063131;28;20055;-68
2022/04/07 00:49:31;;;;;;;0.40;0.40;;;;;;;2.27;96.73;97237.00;5062994;28;20066;-68
2022/04/07 00:51:56;;;;;;;0.40;0.40;;;;;;;2.31;96.72;97238.59;5063039;28;20025;-68
2022/04/07 00:54:22;;;;;;;0.40;0.40;;;;;;;2.33;96.64;97227.41;5068312;28;20037;-68
2022/04/07 00:56:47;;;;;;;0.40;0.40;;;;;;;2.34;96.59;97220.59;5069475;28;20021;-67
2022/04/07 00:59:16;;;;;;;0.40;0.40;;;;;;;2.39;96.54;97226.44;5069585;28;20093;-68
2022/04/07 01:01:43;;;;;;;0.40;0.40;;;;;;;2.41;96.66;97224.66;5069612;28;20025;-70
2022/04/07 01:04:08;;;;;;;0.40;0.40;;;;;;;2.41;96.54;97221.28;5069724;28;20032;-66
2022/04/07 01:06:34;;;;;;;0.40;0.40;;;;;;;2.44;96.60;97227.16;5069364;28;20024;-67
2022/04/07 01:08:59;;;;;;;0.32;0.32;;;;;;;2.45;96.61;97221.16;5069696;28;20039;-68
2022/04/07 01:11:29;;;;;;;0.40;0.40;;;;;;;2.48;96.72;97221.06;5051437;28;20096;-67
2022/04/07 01:13:54;;;;;;;0.40;0.40;;;;;;;2.46;96.73;97210.00;5069641;28;20465;-68
2022/04/07 01:16:25;;;;;;;0.40;0.40;;;;;;;2.54;96.82;97216.66;5069354;28;20042;-67
2022/04/07 01:18:51;;;;;;;0.40;0.40;;;;;;;2.56;96.78;97210.59;5069652;28;20056;-67
2022/04/07 01:21:17;;;;;;;0.40;0.40;;;;;;;2.59;96.70;97212.22;5069769;28;20039;-67
2022/04/07 01:24:01;;;;;;;0.45;0.45;;;;;;;2.60;96.63;97206.25;5069754;28;20032;-67
2022/04/07 01:26:26;;;;;;;0.30;0.30;;;;;;;2.61;96.60;97202.78;5069220;28;20109;-67
2022/04/07 01:28:51;;;;;;;0.40;0.40;;;;;;;2.59;96.63;97199.41;5069557;28;20102;-67
2022/04/07 01:31:17;;;;;;;0.40;0.40;;;;;;;2.65;96.55;97208.69;5069471;28;20016;-68
2022/04/07 01:33:43;;;;;;;0.40;0.40;;;;;;;2.67;96.38;97207.75;5069243;28;20105;-67
2022/04/07 01:36:10;;;;;;;0.40;0.40;;;;;;;2.64;96.47;97212.94;5051362;28;20049;-68
2022/04/07 01:38:36;;;;;;;0.40;0.40;;;;;;;2.66;96.45;97211.19;5069417;28;20021;-68
2022/04/07 01:41:02;;;;;;;0.40;0.40;;;;;;;2.68;96.40;97209.44;5069027;28;20432;-68
2022/04/07 01:43:28;;;;;;;0.40;0.40;;;;;;;2.69;96.35;97212.81;5051462;28;20048;-69
2022/04/07 01:45:54;;;;;;;0.40;0.40;;;;;;;2.68;96.53;97209.44;5069375;28;20052;-68
2022/04/07 01:48:20;;;;;;;0.40;0.40;;;;;;;2.73;96.69;97210.13;5051267;28;20461;-68
2022/04/07 01:50:48;;;;;;;0.30;0.30;;;;;;;2.71;96.75;97203.38;5069289;28;20033;-67
2022/04/07 01:53:14;;;;;;;0.40;0.40;;;;;;;2.72;96.47;97197.34;5069292;28;20100;-67
2022/04/07 01:55:40;;;;;;;0.40;0.40;;;;;;;2.69;96.42;97200.84;5069092;28;20021;-67
2022/04/07 01:58:05;;;;;;;0.40;0.40;;;;;;;2.63;96.21;97188.22;5069429;28;20032;-68
2022/04/07 02:00:31;;;;;;;0.40;0.40;;;;;;;2.62;96.50;97183.16;5069211;28;20389;-68
2022/04/07 02:02:56;;;;;;;0.40;0.40;;;;;;;2.66;96.54;97183.00;5051292;28;20093;-68
2022/04/07 02:05:22;;;;;;;0.40;0.40;;;;;;;2.70;96.69;97187.16;5066631;28;20035;-68
2022/04/07 02:07:47;;;;;;;0.40;0.40;;;;;;;2.68;96.57;97186.38;5065887;28;20407;-67
2022/04/07 02:10:14;;;;;;;0.40;0.40;;;;;;;2.66;96.56;97180.44;5065858;28;20033;-68
2022/04/07 02:12:41;;;;;;;0.40;0.40;;;;;;;2.68;96.64;97176.13;5066106;28;20025;-68
2022/04/07 02:15:08;;;;;;;0.40;0.40;;;;;;;2.66;96.77;97177.03;5047819;28;20031;-68
2022/04/07 02:17:34;;;;;;;0.40;0.40;;;;;;;2.66;96.48;97177.03;5065658;28;20033;-68
2022/04/07 02:20:01;;;;;;;0.40;0.40;;;;;;;2.59;96.44;97171.25;5064315;28;20017;-68
2022/04/07 02:22:28;;;;;;;0.40;0.40;;;;;;;2.58;96.22;97179.81;5065658;28;20021;-68
2022/04/07 02:24:58;;;;;;;0.40;0.40;;;;;;;2.50;96.10;97176.63;5047802;28;20032;-67
2022/04/07 02:27:23;;;;;;;0.30;0.30;;;;;;;2.45;96.03;97167.38;5065577;28;20080;-67
2022/04/07 02:29:49;;;;;;;0.32;0.32;;;;;;;2.39;96.02;97167.53;5065414;28;20094;-67
2022/04/07 02:32:14;;;;;;;0.40;0.40;;;;;;;2.36;96.08;97165.06;5065566;28;20060;-68
2022/04/07 02:34:41;;;;;;;0.30;0.30;;;;;;;2.32;96.26;97164.31;5065491;28;20024;-70
2022/04/07 02:37:06;;;;;;;0.30;0.30;;;;;;;2.33;96.25;97170.28;5065405;28;20025;-67
2022/04/07 02:39:32;;;;;;;0.40;0.40;;;;;;;2.26;96.23;97166.19;5047442;28;20115;-67
2022/04/07 02:41:57;;;;;;;0.40;0.40;;;;;;;2.26;96.15;97164.47;5064863;28;20013;-67
2022/04/07 02:44:22;;;;;;;0.40;0.40;;;;;;;2.26;96.24;97159.34;5065255;28;20025;-67
2022/04/07 02:46:48;;;;;;;0.40;0.40;;;;;;;2.26;96.53;97154.22;5065484;28;20025;-68
2022/04/07 02:49:14;;;;;;;0.38;0.38;;;;;;;2.26;96.18;97151.69;5065410;28;20111;-67
2022/04/07 02:51:39;;;;;;;0.40;0.40;;;;;;;2.23;96.42;97151.75;5065166;28;20021;-67
2022/04/07 02:54:05;;;;;;;0.40;0.40;;;;;;;2.24;96.60;97153.44;5065139;28;20055;-66
2022/04/07 02:56:30;;;;;;;0.30;0.30;;;;;;;2.23;96.56;97151.75;5064791;28;20021;-68
2022/04/07 02:58:56;;;;;;;0.40;0.40;;;;;;;2.18;96.66;97151.88;5065097;28;20032;-68
2022/04/07 03:01:22;;;;;;;0.40;0.40;;;;;;;2.17;96.53;97159.59;5065009;28;20131;-67
2022/04/07 03:03:55;;;;;;;0.32;0.32;;;;;;;2.15;96.40;97143.44;5047051;28;20029;-67
2022/04/07 03:06:21;;;;;;;0.40;0.40;;;;;;;2.08;96.28;97147.88;5063593;28;20020;-68
2022/04/07 03:08:46;;;;;;;0.40;0.40;;;;;;;2.04;96.32;97138.63;5064736;28;20389;-68
2022/04/07 03:11:13;;;;;;;0.40;0.40;;;;;;;1.98;96.34;97132.78;5064550;28;20036;-69
2022/04/07 03:13:39;;;;;;;0.40;0.40;;;;;;;1.98;96.40;97134.50;5064641;28;20431;-68
2022/04/07 03:16:05;;;;;;;0.40;0.40;;;;;;;1.96;96.51;97129.44;5064022;28;20044;-67
2022/04/07 03:18:31;;;;;;;0.40;0.40;;;;;;;1.97;96.57;97136.22;5064106;28;20082;-68
2022/04/07 03:20:57;;;;;;;0.40;0.40;;;;;;;2.02;96.77;97125.00;5064623;28;20028;-68
2022/04/07 03:23:22;;;;;;;0.40;0.40;;;;;;;2.08;96.99;97130.81;5046844;28;20090;-68
2022/04/07 03:25:48;;;;;;;0.40;0.40;;;;;;;2.08;96.76;97135.09;5046361;28;20051;-66
2022/04/07 03:28:13;;;;;;;0.40;0.40;;;;;;;2.04;96.65;97126.69;5063134;28;20021;-67
2022/04/07 03:30:39;;;;;;;0.40;0.40;;;;;;;2.02;96.57;97119.91;5064120;28;20029;-67
2022/04/07 03:33:06;;;;;;;0.40;0.40;;;;;;;1.96;96.42;97118.34;5064257;28;20041;-68
2022/04/07 03:35:36;;;;;;;0.40;0.40;;;;;;;2.02;96.70;97120.75;5046190;28;20032;-67
2022/04/07 03:38:02;;;;;;;0.40;0.40;;;;;;;2.00;96.63;97119.13;5064117;28;20105;-68
2022/04/07 03:40:27;;;;;;;0.40;0.40;;;;;;;1.98;96.50;97119.97;5063991;28;20025;-67
2022/04/07 03:42:53;;;;;;;0.40;0.40;;;;;;;2.01;96.70;97123.34;5046145;28;20020;-67
2022/04/07 03:45:18;;;;;;;0.40;0.40;;;;;;;1.99;96.78;97118.28;5063857;28;20168;-67
2022/04/07 03:47:44;;;;;;;0.40;0.40;;;;;;;1.97;96.54;97113.19;5063807;28;20431;-67
2022/04/07 03:50:10;;;;;;;0.40;0.40;;;;;;;1.93;96.53;97115.88;5063783;28;20025;-67
2022/04/07 03:52:36;;;;;;;0.40;0.40;;;;;;;1.87;96.57;97111.75;5063914;28;20037;-67
2022/04/07 03:55:03;;;;;;;0.40;0.40;;;;;;;1.83;96.35;97112.72;5063944;28;20028;-67
2022/04/07 03:57:28;;;;;;;0.40;0.40;;;;;;;1.77;96.59;97107.75;5063624;28;20021;-67
2022/04/07 03:59:53;;;;;;;0.40;0.40;;;;;;;1.82;96.75;97111.88;5062315;28;20052;-67
2022/04/07 04:02:19;;;;;;;0.40;0.40;;;;;;;1.82;96.76;97101.63;5063989;28;20457;-68
2022/04/07 04:04:44;;;;;;;0.40;0.40;;;;;;;1.81;96.68;97104.25;5063645;28;20103;-68
2022/04/07 04:07:09;;;;;;;0.40;0.40;;;;;;;1.76;96.68;97098.44;5063703;28;20028;-66
2022/04/07 04:09:35;;;;;;;0.40;0.40;;;;;;;1.75;96.85;97095.03;5063757;28;20021;-69
2022/04/07 04:12:00;;;;;;;0.40;0.40;;;;;;;1.76;96.84;97096.69;5063486;28;20036;-68
2022/04/07 04:14:26;;;;;;;0.40;0.40;;;;;;;1.79;97.06;97103.47;5063411;28;20022;-68
2022/04/07 04:16:51;;;;;;;0.40;0.40;;;;;;;1.80;97.08;97098.31;5061889;28;20028;-69
2022/04/07 04:19:16;;;;;;;0.40;0.40;;;;;;;1.78;96.96;97099.19;5063598;28;20473;-68
2022/04/07 04:21:42;;;;;;;0.40;0.40;;;;;;;1.73;96.84;97095.06;5063501;28;20111;-68
2022/04/07 04:24:10;;;;;;;0.40;0.40;;;;;;;1.70;96.91;97097.69;5063480;28;20039;-69
2022/04/07 04:26:36;;;;;;;0.40;0.40;;;;;;;1.69;96.86;97090.88;5063292;28;20035;-69
2022/04/07 04:29:01;;;;;;;0.40;0.40;;;;;;;1.65;96.81;97091.00;5063216;28;20103;-69
2022/04/07 04:31:26;;;;;;;0.40;0.40;;;;;;;1.59;96.92;97089.47;5063560;28;20059;-68
2022/04/07 04:33:52;;;;;;;0.40;0.40;;;;;;;1.56;96.83;97081.88;5041767;28;20057;-66
2022/04/07 04:36:17;;;;;;;0.40;0.40;;;;;;;1.59;96.95;97076.69;5043220;28;20065;-68
2022/04/07 04:38:43;;;;;;;0.40;0.40;;;;;;;1.64;97.15;97074.84;5041798;28;20030;-66
2022/04/07 04:41:09;;;;;;;0.40;0.40;;;;;;;1.67;97.17;97074.75;5042906;28;20048;-65
2022/04/07 04:43:34;;;;;;;0.40;0.40;;;;;;;1.67;97.21;97072.22;5041935;28;20017;-67
2022/04/07 04:46:00;;;;;;;0.40;0.40;;;;;;;1.66;97.21;97067.94;5043312;28;20032;-69
2022/04/07 04:48:25;;;;;;;0.40;0.40;;;;;;;1.57;97.17;97055.41;5043314;28;20033;-68
2022/04/07 04:50:50;;;;;;;0.40;0.40;;;;;;;1.59;96.88;97054.50;5043019;28;20037;-69
2022/04/07 04:53:15;;;;;;;0.40;0.40;;;;;;;1.55;97.04;97050.34;5043371;28;20108;-68
2022/04/07 04:55:41;;;;;;;0.30;0.30;;;;;;;1.60;97.39;97056.19;5042877;28;20053;-68
2022/04/07 04:58:06;;;;;;;0.30;0.30;;;;;;;1.66;97.38;97059.47;5042019;28;20113;-68
2022/04/07 05:00:32;;;;;;;0.40;0.40;;;;;;;1.70;97.55;97061.03;5043215;28;20025;-69
2022/04/07 05:02:57;;;;;;;0.40;0.40;;;;;;;1.71;97.54;97049.97;5041832;28;20036;-69
2022/04/07 05:05:22;;;;;;;0.40;0.40;;;;;;;1.75;97.52;97056.66;5043072;28;20018;-68
2022/04/07 05:07:48;;;;;;;0.40;0.40;;;;;;;1.75;97.62;97048.97;5041634;28;20053;-68
2022/04/07 05:10:13;;;;;;;0.30;0.30;;;;;;;1.78;97.47;97051.47;5043066;28;20041;-68
2022/04/07 05:12:38;;;;;;;0.40;0.40;;;;;;;1.77;97.49;97036.16;5043065;28;20465;-69
2022/04/07 05:15:06;;;;;;;0.40;0.40;;;;;;;1.72;97.39;97039.69;5043015;28;20029;-68
2022/04/07 05:17:31;;;;;;;0.40;0.40;;;;;;;1.66;97.30;97029.59;5042925;28;20032;-68
2022/04/07 05:19:57;;;;;;;0.40;0.40;;;;;;;1.66;97.27;97033.88;5043151;28;20034;-68
2022/04/07 05:22:22;;;;;;;0.40;0.40;;;;;;;1.60;97.45;97024.66;5041674;28;20025;-68
2022/04/07 05:24:48;;;;;;;0.40;0.40;;;;;;;1.60;97.51;97022.94;5042654;28;20521;-68
2022/04/07 05:27:15;;;;;;;0.40;0.40;;;;;;;1.64;97.52;97016.03;5042829;28;20036;-68
2022/04/07 05:29:40;;;;;;;0.40;0.40;;;;;;;1.65;97.60;97019.41;5042935;28;20029;-68
2022/04/07 05:32:06;;;;;;;0.40;0.40;;;;;;;1.68;97.75;97016.75;5043964;28;20030;-68
2022/04/07 05:34:32;;;;;;;0.40;0.40;;;;;;;1.71;97.73;97009.84;5062627;28;20036;-70
2022/04/07 05:36:57;;;;;;;0.40;0.40;;;;;;;1.73;97.85;97010.66;5044467;28;20392;-68
2022/04/07 05:39:23;;;;;;;0.40;0.40;;;;;;;1.77;97.83;97001.19;5062345;28;20017;-69
2022/04/07 05:41:49;;;;;;;0.40;0.40;;;;;;;1.78;98.03;96995.19;5065615;28;20033;-68
2022/04/07 05:44:14;;;;;;;0.40;0.40;;;;;;;1.83;97.93;96997.63;5066198;28;20024;-69
2022/04/07 05:46:40;;;;;;;0.40;0.40;;;;;;;1.85;97.95;96993.31;5066151;28;20024;-68
2022/04/07 05:49:05;;;;;;;0.40;0.40;;;;;;;1.87;97.94;96988.97;5066247;28;20091;-70
2022/04/07 05:51:30;;;;;;;0.40;0.40;;;;;;;1.92;98.11;96987.13;5066212;28;20465;-67
2022/04/07 05:53:56;;;;;;;0.40;0.40;;;;;;;1.97;98.07;96986.97;5048188;28;20028;-68
2022/04/07 05:56:21;;;;;;;0.40;0.40;;;;;;;2.02;98.17;96984.28;5047812;28;20040;-68
2022/04/07 05:58:46;;;;;;;0.40;0.40;;;;;;;2.06;98.16;96983.34;5066050;28;20021;-67
2022/04/07 06:01:12;;;;;;;0.40;0.40;;;;;;;1.98;98.22;96963.09;5065870;28;20092;-69
2022/04/07 06:03:37;;;;;;;0.40;0.40;;;;;;;2.09;98.17;96970.44;5065766;28;20021;-69
2022/04/07 06:06:03;;;;;;;0.40;0.40;;;;;;;2.13;98.21;96968.59;5065710;28;20048;-69
2022/04/07 06:08:28;;;;;;;0.40;0.40;;;;;;;2.19;98.28;96969.28;5047814;28;20027;-68
2022/04/07 06:10:54;;;;;;;0.40;0.40;;;;;;;2.23;98.25;96968.31;5065441;28;20025;-69
2022/04/07 06:13:20;;;;;;;0.40;0.40;;;;;;;2.24;98.32;96969.13;5047666;28;20021;-69
2022/04/07 06:15:45;;;;;;;0.40;0.40;;;;;;;2.23;98.37;96960.63;5065760;28;20028;-68
2022/04/07 06:18:10;;;;;;;0.40;0.40;;;;;;;2.28;98.20;96954.53;5065702;28;20084;-68
2022/04/07 06:20:36;;;;;;;0.40;0.40;;;;;;;2.29;98.28;96951.91;5064208;28;20017;-68
2022/04/07 06:23:01;;;;;;;0.40;0.40;;;;;;;2.28;98.34;96944.28;5065554;28;20020;-68
2022/04/07 06:25:26;;;;;;;0.40;0.40;;;;;;;2.32;98.22;96950.97;5065380;28;20457;-68
2022/04/07 06:27:52;;;;;;;0.40;0.40;;;;;;;2.32;98.23;96945.84;5065329;28;20052;-68
2022/04/07 06:30:19;;;;;;;0.40;0.40;;;;;;;2.27;98.21;96938.31;5065424;28;20025;-67
2022/04/07 06:32:45;;;;;;;0.40;0.40;;;;;;;2.35;98.38;96943.19;5065124;28;20127;-67
2022/04/07 06:35:12;;;;;;;0.40;0.40;;;;;;;2.40;98.51;96945.63;5065447;28;20052;-69
2022/04/07 06:37:56;;;;;;;0.40;0.40;;;;;;;2.41;98.50;96937.88;5065310;28;20025;-68
2022/04/07 06:40:27;;;;;;;0.40;0.40;;;;;;;2.42;98.56;96934.47;5047476;28;20133;-69
2022/04/07 06:42:54;;;;;;;0.50;0.50;;;;;;;2.44;98.65;96930.13;5065258;28;20085;-68
2022/04/07 06:45:20;;;;;;;0.40;0.40;;;;;;;2.47;98.68;96924.91;5065289;28;20361;-68
2022/04/07 06:47:45;;;;;;;0.40;0.40;;;;;;;2.53;98.75;96928.16;5046968;28;20473;-68
2022/04/07 06:50:16;;;;;;;0.30;0.30;;;;;;;2.54;98.91;96919.59;5063827;28;20025;-69
2022/04/07 06:52:43;;;;;;;0.40;0.40;;;;;;;2.60;98.87;96919.41;5064973;28;20025;-68
2022/04/07 06:55:09;;;;;;;0.40;0.40;;;;;;;2.65;98.79;96916.69;5047185;28;20025;-68
2022/04/07 06:57:56;;;;;;;0.40;0.40;;;;;;;2.65;98.73;96912.38;5064780;28;20021;-68
2022/04/07 07:00:24;;;;;;;0.40;0.40;;;;;;;2.65;98.77;96901.31;5064895;28;20046;-68
2022/04/07 07:02:53;;;;;;;0.40;0.40;;;;;;;2.65;98.74;96897.00;5046985;28;20021;-68
2022/04/07 07:05:24;;;;;;;0.40;0.40;;;;;;;2.69;98.92;96896.03;5064824;28;20028;-68
2022/04/07 07:07:50;;;;;;;0.40;0.40;;;;;;;2.73;98.85;96895.03;5064579;28;20025;-68
2022/04/07 07:10:21;;;;;;;0.40;0.40;;;;;;;2.79;99.03;96878.66;5064792;28;20040;-68
2022/04/07 07:12:50;;;;;;;0.40;0.40;;;;;;;2.84;99.19;96883.59;5064760;28;20365;-68
2022/04/07 07:15:16;;;;;;;0.40;0.40;;;;;;;2.93;99.15;96873.03;5063548;28;20025;-68
2022/04/07 07:17:42;;;;;;;0.40;0.40;;;;;;;2.98;99.22;96862.63;5064499;28;20090;-68
2022/04/07 07:20:10;;;;;;;0.30;0.30;;;;;;;3.04;99.42;96862.41;5063169;28;20024;-69
2022/04/07 07:22:37;;;;;;;0.40;0.40;;;;;;;3.09;99.31;96854.56;5064601;28;20296;-68
2022/04/07 07:25:02;;;;;;;0.30;0.30;;;;;;;3.10;99.28;96856.22;5062963;28;20029;-68
2022/04/07 07:27:28;;;;;;;0.35;0.35;;;;;;;3.13;99.33;96848.41;5064054;28;20035;-68
2022/04/07 07:29:53;;;;;;;0.40;0.40;;;;;;;3.20;99.44;96834.50;5064207;28;20081;-68
2022/04/07 07:32:18;;;;;;;0.30;0.30;;;;;;;3.25;99.25;96833.50;5064002;28;20048;-67
2022/04/07 07:34:44;;;;;;;0.40;0.40;;;;;;;3.29;99.40;96830.75;5064422;28;20017;-68
2022/04/07 07:37:09;;;;;;;0.40;0.40;;;;;;;3.35;99.17;96825.41;5064150;28;20434;-68
2022/04/07 07:39:34;;;;;;;0.40;0.40;;;;;;;3.39;99.56;96810.75;5064107;28;20032;-68
2022/04/07 07:42:00;;;;;;;0.40;0.40;;;;;;;3.47;99.73;96807.88;5063895;28;20017;-67
2022/04/07 07:44:25;;;;;;;0.30;0.30;;;;;;;3.53;99.60;96805.09;5064117;28;20392;-67
2022/04/07 07:46:51;;;;;;;0.40;0.40;;;;;;;3.58;99.71;96797.22;5045974;28;20089;-68
2022/04/07 07:49:16;;;;;;;0.40;0.40;;;;;;;3.61;99.78;96789.41;5064078;28;20032;-66
2022/04/07 07:51:42;;;;;;;0.30;0.30;;;;;;;3.66;99.79;96790.06;5063683;28;20080;-68
2022/04/07 07:54:07;;;;;;;0.40;0.40;;;;;;;3.72;99.85;96787.25;5064176;28;20045;-68
2022/04/07 07:56:33;;;;;;;0.35;0.35;;;;;;;3.79;99.95;96781.88;5063633;28;20036;-67
2022/04/07 07:58:58;;;;;;;0.35;0.35;;;;;;;3.84;99.83;96779.97;5063786;28;20025;-67
2022/04/07 08:01:24;;;;;;;0.30;0.30;;;;;;;3.85;99.95;96766.25;5063753;28;20009;-67
2022/04/07 08:03:50;;;;;;;0.32;0.32;;;;;;;3.93;99.80;96758.25;5062934;28;20031;-67
2022/04/07 08:06:15;;;;;;;0.30;0.30;;;;;;;3.93;99.77;96753.94;5063717;28;20028;-67
2022/04/07 08:08:40;;;;;;;0.40;0.40;;;;;;;3.99;99.94;96752.03;5062811;28;20567;-67
2022/04/07 08:11:06;;;;;;;0.40;0.40;;;;;;;4.04;99.88;96743.25;5044739;28;20096;-68
2022/04/07 08:13:31;;;;;;;0.35;0.35;;;;;;;4.10;100.00;96742.16;5063564;28;20067;-66
2022/04/07 08:15:56;;;;;;;0.30;0.30;;;;;;;4.17;100.00;96735.88;5062020;28;20032;-67
2022/04/07 08:18:23;;;;;;;0.40;0.40;;;;;;;4.19;100.00;96731.50;5063698;28;20182;-68
2022/04/07 08:20:48;;;;;;;0.30;0.30;;;;;;;4.28;100.00;96721.75;5063421;28;20021;-68
2022/04/07 08:23:14;;;;;;;0.30;0.30;;;;;;;4.29;100.00;96714.00;5063363;28;20046;-67
2022/04/07 08:25:39;;;;;;;0.40;0.40;;;;;;;4.34;100.00;96706.91;5044973;28;20017;-68
2022/04/07 08:28:05;;;;;;;0.30;0.30;;;;;;;4.39;100.00;96700.75;5063304;28;20472;-67
2022/04/07 08:30:34;;;;;;;0.40;0.40;;;;;;;4.38;100.00;96688.81;5063060;28;20469;-67
2022/04/07 08:33:05;;;;;;;0.30;0.30;;;;;;;4.46;100.00;96690.16;5062991;28;20128;-67
2022/04/07 08:35:31;;;;;;;0.40;0.40;;;;;;;4.50;100.00;96690.00;5063350;28;20049;-68
2022/04/07 08:37:56;;;;;;;0.30;0.30;;;;;;;4.51;100.00;96692.50;5063153;28;20059;-67
2022/04/07 08:40:22;;;;;;;0.30;0.30;;;;;;;4.52;100.00;96685.66;5061705;28;20017;-68
2022/04/07 08:42:48;;;;;;;0.30;0.30;;;;;;;4.51;100.00;96681.38;5044901;28;20045;-67
2022/04/07 08:45:13;;;;;;;0.30;0.30;;;;;;;4.53;100.00;96682.16;5063055;28;20017;-67
2022/04/07 08:47:40;;;;;;;0.30;0.30;;;;;;;4.53;100.00;96674.47;5062941;28;20032;-67
2022/04/07 08:50:06;;;;;;;0.30;0.30;;;;;;;4.57;100.00;96671.69;5044876;28;20055;-67
2022/04/07 08:52:33;;;;;;;0.30;0.30;;;;;;;4.57;100.00;96670.84;5062744;28;20032;-67
2022/04/07 08:54:59;;;;;;;0.40;0.40;;;;;;;4.55;100.00;96668.34;5062888;28;20024;-67
2022/04/07 08:57:26;;;;;;;0.30;0.30;;;;;;;4.54;100.00;96665.84;5062570;28;20043;-67
2022/04/07 08:59:51;;;;;;;0.30;0.30;;;;;;;4.57;100.00;96668.28;5062887;28;20024;-67
2022/04/07 09:02:17;;;;;;;0.30;0.30;;;;;;;4.58;100.00;96657.94;5062784;28;20063;-67
2022/04/07 09:04:42;;;;;;;0.30;0.30;;;;;;;4.61;100.00;96662.13;5062754;28;20036;-68
2022/04/07 09:07:11;;;;;;;0.30;0.30;;;;;;;4.57;100.00;96658.00;5062583;28;20052;-68
2022/04/07 09:09:37;;;;;;;0.30;0.30;;;;;;;4.53;100.00;96653.91;5062702;28;20029;-68
2022/04/07 09:12:02;;;;;;;0.30;0.30;;;;;;;4.56;100.00;96653.78;5062509;28;20029;-66
2022/04/07 09:14:33;;;;;;;0.30;0.30;;;;;;;4.59;100.00;96659.63;5064266;28;20028;-68
2022/04/07 09:16:58;;;;;;;0.30;0.30;;;;;;;4.59;100.00;96653.63;5066686;28;20024;-67
2022/04/07 09:19:24;;;;;;;0.30;0.30;;;;;;;4.58;100.00;96641.69;5066889;28;20025;-67
2022/04/07 09:22:09;;;;;;;0.30;0.30;;;;;;;4.58;100.00;96636.56;5066733;28;20028;-67
2022/04/07 09:24:36;;;;;;;0.30;0.30;;;;;;;4.54;100.00;96622.16;5066705;28;20220;-67
2022/04/07 09:27:06;;;;;;;0.35;0.35;;;;;;;4.67;100.00;96618.16;5066442;28;20540;-67
2022/04/07 09:29:46;;;;;;;0.30;0.30;;;;;;;4.77;100.00;96604.88;5066444;28;20512;-67
2022/04/07 09:32:28;;;;;;;0.30;0.30;;;;;;;4.88;100.00;96601.81;5066294;28;20049;-68
2022/04/07 09:34:55;;;;;;;0.40;0.40;;;;;;;4.93;100.00;96594.72;5066515;28;20037;-69
2022/04/07 09:37:22;;;;;;;0.30;0.30;;;;;;;5.00;100.00;96596.09;5066161;28;20491;-67
2022/04/07 09:39:50;;;;;;;0.30;0.30;;;;;;;4.99;100.00;96580.75;5066478;28;20032;-67
2022/04/07 09:42:23;;;;;;;0.30;0.30;;;;;;;5.01;100.00;96582.34;5065938;28;20020;-67
2022/04/07 09:44:57;;;;;;;0.30;0.30;;;;;;;5.00;100.00;96583.22;5066290;28;20503;-67
2022/04/07 09:47:33;;;;;;;0.30;0.30;;;;;;;4.95;100.00;96569.78;5066150;28;20029;-68
2022/04/07 09:49:58;;;;;;;0.30;0.30;;;;;;;4.95;100.00;96578.31;5064716;28;20020;-67
2022/04/07 09:52:23;;;;;;;0.30;0.30;;;;;;;4.94;100.00;96568.94;5066066;28;20027;-67
2022/04/07 09:54:51;;;;;;;0.30;0.30;;;;;;;4.96;100.00;96569.72;5066286;28;20021;-67
2022/04/07 09:57:20;;;;;;;0.30;0.30;;;;;;;5.02;100.00;96560.03;5065817;28;20093;-67
2022/04/07 09:59:45;;;;;;;0.30;0.30;;;;;;;5.02;100.00;96553.16;5048288;28;20021;-67
2022/04/07 10:02:11;;;;;;;0.30;0.30;;;;;;;5.01;100.00;96550.66;5066113;28;20052;-67
2022/04/07 10:04:37;;;;;;;0.30;0.30;;;;;;;4.93;100.00;96551.88;5047958;28;20033;-67
2022/04/07 10:07:05;;;;;;;0.30;0.30;;;;;;;4.83;100.00;96536.06;5065708;28;20029;-67
2022/04/07 10:09:31;;;;;;;0.30;0.30;;;;;;;4.82;100.00;96530.97;5065929;28;20228;-67
2022/04/07 10:11:58;;;;;;;0.30;0.30;;;;;;;4.78;100.00;96526.88;5065558;28;20045;-69
2022/04/07 10:14:24;;;;;;;0.30;0.30;;;;;;;4.75;100.00;96532.16;5065815;28;20112;-67
2022/04/07 10:16:50;;;;;;;0.32;0.32;;;;;;;4.75;100.00;96525.28;5065718;28;20021;-67
2022/04/07 10:19:22;;;;;;;0.30;0.30;;;;;;;4.78;100.00;96521.75;5065796;28;20036;-68
2022/04/07 10:22:04;;;;;;;0.30;0.30;;;;;;;4.79;100.00;96505.44;5065912;28;20025;-68
2022/04/07 10:24:36;;;;;;;0.30;0.30;;;;;;;4.80;100.00;96502.78;5047696;28;20104;-69
2022/04/07 10:27:04;;;;;;;0.40;0.40;;;;;;;4.86;100.00;96499.06;5064535;28;20049;-67
2022/04/07 10:29:29;;;;;;;0.30;0.30;;;;;;;4.83;100.00;96491.53;5065393;28;20036;-67
2022/04/07 10:32:19;;;;;;;0.30;0.30;;;;;;;4.84;100.00;96488.03;5065505;28;20021;-67
2022/04/07 10:34:56;;;;;;;0.30;0.30;;;;;;;4.78;100.00;96478.06;5065475;28;20047;-68
2022/04/07 10:37:49;;;;;;;0.30;0.30;;;;;;;4.63;100.00;96470.19;5065193;28;20604;-68
2022/04/07 10:40:49;;;;;;;0.30;0.30;;;;;;;4.61;100.00;96455.75;5065284;28;20108;-68
2022/04/07 10:43:14;;;;;;;0.30;0.30;;;;;;;4.57;100.00;96449.91;5064052;28;20029;-69
2022/04/07 10:46:07;;;;;;;0.38;0.38;;;;;;;4.51;100.00;96451.06;5065026;28;20025;-67
2022/04/07 10:48:50;;;;;;;0.30;0.30;;;;;;;4.51;100.00;96443.34;5064946;28;20020;-68
2022/04/07 10:51:16;;;;;;;0.30;0.30;;;;;;;4.52;100.00;96439.06;5064972;28;20032;-68
2022/04/07 10:53:54;;;;;;;0.30;0.30;;;;;;;4.48;100.00;96446.06;5064937;28;20032;-69
2022/04/07 10:56:24;;;;;;;0.30;0.30;;;;;;;4.47;100.00;96419.53;5064666;28;20056;-70
2022/04/07 10:58:55;;;;;;;0.30;0.30;;;;;;;4.47;100.00;96429.00;5065088;28;20084;-67
2022/04/07 11:01:32;;;;;;;0.30;0.30;;;;;;;4.40;100.00;96407.06;5064946;28;20174;-68
2022/04/07 11:04:22;;;;;;;0.30;0.30;;;;;;;4.34;100.00;96392.81;5064910;28;20099;-67
2022/04/07 11:07:07;;;;;;;0.40;0.40;;;;;;;4.30;100.00;96386.97;5064737;28;20025;-70
2022/04/07 11:09:44;;;;;;;0.30;0.30;;;;;;;4.32;100.00;96392.03;5064868;28;20028;-69
2022/04/07 11:12:12;;;;;;;0.30;0.30;;;;;;;4.32;100.00;96384.31;5064577;28;20028;-68
2022/04/07 11:14:38;;;;;;;0.30;0.30;;;;;;;4.36;100.00;96379.88;5064792;28;20029;-69
2022/04/07 11:17:07;;;;;;;0.38;0.38;;;;;;;4.32;100.00;96377.47;5064721;28;20033;-69
2022/04/07 11:19:58;;;;;;;0.30;0.30;;;;;;;4.32;100.00;96372.34;5064586;28;20052;-68
2022/04/07 11:22:56;;;;;;;0.40;0.40;;;;;;;4.36;100.00;96364.47;5064656;28;20090;-69
2022/04/07 11:25:41;;;;;;;0.30;0.30;;;;;;;4.36;100.00;96374.75;5064698;28;20017;-69
2022/04/07 11:28:07;;;;;;;0.40;0.40;;;;;;;4.35;100.00;96355.94;5046285;28;20043;-68
2022/04/07 11:30:55;;;;;;;0.30;0.30;;;;;;;4.37;100.00;96355.84;5064316;28;20041;-69
2022/04/07 11:33:25;;;;;;;0.30;0.30;;;;;;;4.35;100.00;96358.50;5046341;28;20071;-68
2022/04/07 11:36:00;;;;;;;0.30;0.30;;;;;;;4.30;100.00;96350.19;5046317;28;20033;-68
2022/04/07 11:38:34;;;;;;;0.32;0.32;;;;;;;4.30;100.00;96337.34;5045227;28;20059;-69
2022/04/07 11:41:00;;;;;;;0.30;0.30;;;;;;;4.30;100.00;96339.91;5064113;28;20349;-68